Decoded Metar for KJMS (JAMESTOWN in ND, USA) (IATA:JMS) | Meteo·Mobile Aviation Weather
aviador You're here:

KJMS Decoded Metar

JAMESTOWN in ND, USA
Report Time2018-12-11 02:56:00
UTC Time2018-12-11 03:09:23
Flight Rules vfr VFR
WindCalm
Visibility9999 m
Phenomena:N/A
Clouds:N/A
Expected CloudBase > 1,200 ft AGL from Temp-Dew spread
CeilingNone
Temp-9°C (ISA -21)
Dew Point-12°C (79% RH)
AAT-12.2°C
QNH1015 hPa
Density Alt-1,152 ft
Elevation1,493 ft
Report Wrong Elevation
Raw Report
KJMS 110256Z AUTO 00000KT 10SM CLR M09/M12 A2996 RMK AO2 SLP173
I3000 T10891117 58001=

Extra information for KJMS:More info

Metar Taf Metar & Taf Last 4 Metars F.Rules Stats Wind Profile Meteogram Temp Stats Airport Information Weather charts Add Link Nearby VenuesMetar ALERT Operation Metar Decoded Social comments

AIRNAV info for KJMS